createdAt,value
2022-09-12T00:00:39.864Z,97389.59
2022-09-12T00:03:06.181Z,97391.16
2022-09-12T00:05:33.137Z,97386.25
2022-09-12T00:08:00.622Z,97373.69
2022-09-12T00:10:27.228Z,97383.78
2022-09-12T00:12:53.607Z,97380.44
2022-09-12T00:15:20.048Z,97383.50
2022-09-12T00:17:46.380Z,97375.97
2022-09-12T00:20:12.738Z,97372.59
2022-09-12T00:22:39.304Z,97373.06
2022-09-12T00:25:06.146Z,97378.56
2022-09-12T00:27:32.476Z,97366.19
2022-09-12T00:29:58.823Z,97374.44
2022-09-12T00:32:25.148Z,97356.03
2022-09-12T00:34:51.483Z,97364.47
2022-09-12T00:37:17.832Z,97373.50
2022-09-12T00:39:44.644Z,97356.03
2022-09-12T00:42:12.677Z,97367.69
2022-09-12T00:44:38.949Z,97363.13
2022-09-12T00:47:27.995Z,97360.16
2022-09-12T00:50:11.236Z,97353.88
2022-09-12T00:52:51.548Z,97356.94
2022-09-12T00:55:41.144Z,97362.34
2022-09-12T00:58:16.799Z,97354.81
2022-09-12T01:00:43.395Z,97360.59
2022-09-12T01:03:14.648Z,97353.56
2022-09-12T01:05:47.813Z,97349.09
2022-09-12T01:08:14.330Z,97342.53
2022-09-12T01:10:42.447Z,97345.00
2022-09-12T01:13:10.643Z,97352.94
2022-09-12T01:15:39.311Z,97347.59
2022-09-12T01:18:12.805Z,97342.53
2022-09-12T01:20:57.868Z,97344.81
2022-09-12T01:23:42.868Z,97337.16
2022-09-12T01:26:38.227Z,97337.00
2022-09-12T01:29:10.823Z,97332.72
2022-09-12T01:31:42.511Z,97331.50
2022-09-12T01:34:20.801Z,97324.13
2022-09-12T01:37:01.256Z,97324.88
2022-09-12T01:39:40.869Z,97321.66
2022-09-12T01:42:26.783Z,97328.44
2022-09-12T01:45:31.416Z,97331.47
2022-09-12T01:48:21.798Z,97326.41
2022-09-12T01:50:56.616Z,97327.47
2022-09-12T01:53:29.394Z,97320.72
2022-09-12T01:56:08.106Z,97333.44
2022-09-12T01:58:46.862Z,97325.75
2022-09-12T02:01:19.967Z,97316.72
2022-09-12T02:03:53.562Z,97316.44
2022-09-12T02:06:28.055Z,97306.03
2022-09-12T02:09:07.447Z,97318.13
2022-09-12T02:11:38.513Z,97315.06
2022-09-12T02:14:16.600Z,97309.09
2022-09-12T02:16:49.379Z,97307.88
2022-09-12T02:19:19.881Z,97308.34
2022-09-12T02:21:55.285Z,97304.34
2022-09-12T02:24:24.091Z,97296.97
2022-09-12T02:26:56.871Z,97306.03
2022-09-12T02:29:23.335Z,97305.28
2022-09-12T02:31:57.395Z,97304.06
2022-09-12T02:34:40.981Z,97307.84
2022-09-12T02:37:32.414Z,97302.66
2022-09-12T02:39:59.951Z,97301.88
2022-09-12T02:42:27.032Z,97296.81
2022-09-12T02:44:55.834Z,97291.00
2022-09-12T02:47:46.882Z,97289.63
2022-09-12T02:50:13.767Z,97296.97
2022-09-12T02:52:42.296Z,97295.44
2022-09-12T02:55:11.616Z,97293.28
2022-09-12T02:57:38.339Z,97297.25
2022-09-12T03:00:06.047Z,97288.22
2022-09-12T03:02:51.352Z,97289.31
2022-09-12T03:05:41.107Z,97286.09
2022-09-12T03:08:23.533Z,97298.97
2022-09-12T03:11:16.587Z,97298.38
2022-09-12T03:14:02.378Z,97293.28
2022-09-12T03:16:55.916Z,97285.91
2022-09-12T03:19:48.296Z,97287.56
2022-09-12T03:22:36.295Z,97299.19
2022-09-12T03:25:35.952Z,97295.97
2022-09-12T03:28:08.113Z,97291.69
2022-09-12T03:30:43.169Z,97292.56
2022-09-12T03:33:14.424Z,97286.13
2022-09-12T03:35:41.300Z,97283.84
2022-09-12T03:38:08.375Z,97290.13
2022-09-12T03:40:35.913Z,97291.69
2022-09-12T03:43:03.076Z,97287.69
2022-09-12T03:45:29.545Z,97278.19
2022-09-12T03:47:55.919Z,97287.22
2022-09-12T03:50:22.601Z,97294.56
2022-09-12T03:52:49.026Z,97280.94
2022-09-12T03:55:16.011Z,97280.78
2022-09-12T03:57:42.331Z,97301.00
2022-09-12T04:00:09.007Z,97296.88
2022-09-12T04:02:35.473Z,97296.25
2022-09-12T04:05:01.901Z,97287.97
2022-09-12T04:07:28.261Z,97284.56
2022-09-12T04:09:54.850Z,97288.22
2022-09-12T04:12:21.212Z,97280.59
2022-09-12T04:14:48.206Z,97284.75
2022-09-12T04:17:14.945Z,97289.94
2022-09-12T04:19:41.317Z,97287.78
2022-09-12T04:22:07.651Z,97278.28
2022-09-12T04:24:34.035Z,97277.94
2022-09-12T04:27:02.041Z,97287.59
2022-09-12T04:29:31.395Z,97290.19
2022-09-12T04:31:57.754Z,97300.72
2022-09-12T04:34:24.100Z,97295.06
2022-09-12T04:36:50.448Z,97295.53
2022-09-12T04:39:16.993Z,97291.25
2022-09-12T04:41:43.415Z,97292.34
2022-09-12T04:44:14.093Z,97286.50
2022-09-12T04:46:44.567Z,97271.50
2022-09-12T04:49:12.524Z,97285.44
2022-09-12T04:51:40.732Z,97281.16
2022-09-12T04:54:12.527Z,97284.81
2022-09-12T04:56:40.417Z,97286.63
2022-09-12T04:59:08.573Z,97287.41
2022-09-12T05:01:35.864Z,97291.25
2022-09-12T05:04:03.630Z,97279.59
2022-09-12T05:06:34.377Z,97287.41
2022-09-12T05:09:01.895Z,97289.69
2022-09-12T05:11:53.038Z,97288.19
2022-09-12T05:14:17.425Z,97288.81
2022-09-12T05:16:48.566Z,97288.03
2022-09-12T05:19:15.787Z,97291.25
2022-09-12T05:21:42.128Z,97294.00
2022-09-12T05:24:11.347Z,97295.53
2022-09-12T05:26:37.792Z,97286.69
2022-09-12T05:29:06.054Z,97277.81
2022-09-12T05:31:32.498Z,97300.50
2022-09-12T05:33:58.863Z,97292.72
2022-09-12T05:36:27.572Z,97284.66
2022-09-12T05:38:54.228Z,97282.81
2022-09-12T05:41:30.672Z,97285.00
2022-09-12T05:43:59.095Z,97268.03
2022-09-12T05:46:28.165Z,97269.13
2022-09-12T05:48:56.589Z,97277.69
2022-09-12T05:51:27.971Z,97281.34
2022-09-12T05:53:58.787Z,97283.53
2022-09-12T05:56:27.379Z,97290.28
2022-09-12T05:59:03.178Z,97285.22
2022-09-12T06:01:31.342Z,97277.38
2022-09-12T06:04:00.787Z,97291.81
2022-09-12T06:06:29.003Z,97285.84
2022-09-12T06:09:03.442Z,97283.19
2022-09-12T06:11:32.128Z,97284.53
2022-09-12T06:13:59.993Z,97281.75
2022-09-12T06:16:29.298Z,97280.44
2022-09-12T06:18:59.306Z,97285.59
2022-09-12T06:21:26.796Z,97275.38
2022-09-12T06:23:55.550Z,97282.34
2022-09-12T06:26:23.498Z,97279.03
2022-09-12T06:28:50.372Z,97288.22
2022-09-12T06:31:21.329Z,97278.19
2022-09-12T06:33:50.373Z,97278.63
2022-09-12T06:36:22.414Z,97282.06
2022-09-12T06:38:57.185Z,97275.53
2022-09-12T06:41:25.357Z,97276.69
2022-09-12T06:43:51.970Z,97275.31
2022-09-12T06:46:18.973Z,97278.94
2022-09-12T06:48:45.634Z,97275.38
2022-09-12T06:51:14.674Z,97279.94
2022-09-12T06:53:42.040Z,97285.16
2022-09-12T06:56:21.779Z,97280.59
2022-09-12T06:58:50.250Z,97271.75
2022-09-12T07:01:17.976Z,97274.25
2022-09-12T07:03:48.980Z,97270.66
2022-09-12T07:06:17.593Z,97270.88
2022-09-12T07:08:44.392Z,97283.16
2022-09-12T07:11:13.923Z,97285.47
2022-09-12T07:13:41.784Z,97278.25
2022-09-12T07:16:10.276Z,97283.84
2022-09-12T07:18:40.559Z,97280.03
2022-09-12T07:21:10.206Z,97278.00
2022-09-12T07:23:36.622Z,97282.06
2022-09-12T07:26:03.594Z,97278.81
2022-09-12T07:28:32.067Z,97287.47
2022-09-12T07:31:04.599Z,97286.38
2022-09-12T07:33:31.041Z,97272.56
2022-09-12T07:36:05.304Z,97277.75
2022-09-12T07:38:32.004Z,97275.72
2022-09-12T07:40:58.819Z,97281.38
2022-09-12T07:43:25.420Z,97279.09
2022-09-12T07:45:56.421Z,97273.38
2022-09-12T07:48:23.179Z,97275.34
2022-09-12T07:51:00.129Z,97267.72
2022-09-12T07:53:30.693Z,97279.19
2022-09-12T07:55:57.049Z,97265.91
2022-09-12T07:58:24.620Z,97272.31
2022-09-12T08:00:51.280Z,97270.25
2022-09-12T08:03:18.107Z,97279.41
2022-09-12T08:05:44.506Z,97277.38
2022-09-12T08:08:10.999Z,97278.00
2022-09-12T08:10:37.379Z,97279.09
2022-09-12T08:13:03.761Z,97284.84
2022-09-12T08:15:31.118Z,97277.78
2022-09-12T08:17:57.618Z,97288.88
2022-09-12T08:20:28.138Z,97299.13
2022-09-12T08:22:54.792Z,97290.72
2022-09-12T08:25:21.138Z,97291.16
2022-09-12T08:27:48.285Z,97299.25
2022-09-12T08:30:14.716Z,97304.19
2022-09-12T08:32:41.056Z,97300.19
2022-09-12T08:35:07.994Z,97301.53
2022-09-12T08:37:34.332Z,97309.38
2022-09-12T08:40:00.727Z,97311.56
2022-09-12T08:42:51.603Z,97313.81
2022-09-12T08:45:34.340Z,97317.66
2022-09-12T08:48:04.509Z,97315.59
2022-09-12T08:50:32.423Z,97314.53
2022-09-12T08:53:03.290Z,97323.31
2022-09-12T08:55:43.692Z,97316.75
2022-09-12T08:58:14.841Z,97308.94
2022-09-12T09:01:20.114Z,97308.16
2022-09-12T09:04:12.936Z,97312.31
2022-09-12T09:07:14.489Z,97307.84
2022-09-12T09:10:03.057Z,97299.69
2022-09-12T09:12:40.580Z,97303.88
2022-09-12T09:15:37.717Z,97299.22
2022-09-12T09:18:13.467Z,97312.72
2022-09-12T09:20:52.880Z,97307.19
2022-09-12T09:23:25.905Z,97314.22
2022-09-12T09:26:04.799Z,97301.22
2022-09-12T09:28:52.451Z,97299.22
2022-09-12T09:31:21.151Z,97296.53
2022-09-12T09:33:56.676Z,97296.09
2022-09-12T09:36:31.256Z,97304.44
2022-09-12T09:39:06.871Z,97312.16
2022-09-12T09:41:42.811Z,97301.63
2022-09-12T09:44:09.834Z,97297.22
2022-09-12T09:46:36.414Z,97292.09
2022-09-12T09:49:04.174Z,97274.25
2022-09-12T09:51:39.036Z,97287.84
2022-09-12T09:54:21.148Z,97297.94
2022-09-12T09:56:47.733Z,97296.03
2022-09-12T09:59:14.008Z,97291.31
2022-09-12T10:02:04.126Z,97284.75
2022-09-12T10:04:40.674Z,97284.84
2022-09-12T10:07:18.731Z,97282.50
2022-09-12T10:10:06.295Z,97281.72
2022-09-12T10:12:33.045Z,97275.75
2022-09-12T10:15:16.130Z,97280.03
2022-09-12T10:17:46.305Z,97270.31
2022-09-12T10:20:39.010Z,97258.38
2022-09-12T10:23:37.773Z,97270.03
2022-09-12T10:26:16.499Z,97258.75
2022-09-12T10:28:54.880Z,97258.84
2022-09-12T10:31:35.968Z,97262.56
2022-09-12T10:34:02.382Z,97260.56
2022-09-12T10:36:39.781Z,97259.38
2022-09-12T10:39:07.284Z,97263.13
2022-09-12T10:41:40.375Z,97262.31
2022-09-12T10:44:24.555Z,97256.56
2022-09-12T10:46:50.947Z,97262.25
2022-09-12T10:49:27.533Z,97260.03
2022-09-12T10:51:55.918Z,97256.72
2022-09-12T10:54:26.696Z,97257.16
2022-09-12T10:57:23.867Z,97256.47
2022-09-12T10:59:58.845Z,97261.06
2022-09-12T11:02:31.704Z,97251.88
2022-09-12T11:05:25.908Z,97248.13
2022-09-12T11:08:10.848Z,97250.34
2022-09-12T11:11:07.439Z,97245.28
2022-09-12T11:14:03.264Z,97256.53
2022-09-12T11:16:42.106Z,97250.84
2022-09-12T11:19:51.544Z,97250.06
2022-09-12T11:22:43.652Z,97243.66
2022-09-12T11:25:22.760Z,97244.97
2022-09-12T11:28:15.365Z,97245.41
2022-09-12T11:31:03.643Z,97243.06
2022-09-12T11:33:45.402Z,97245.69
2022-09-12T11:36:21.066Z,97238.50
2022-09-12T11:38:52.280Z,97235.03
2022-09-12T11:41:31.375Z,97236.88
2022-09-12T11:44:22.237Z,97217.81
2022-09-12T11:46:51.885Z,97212.59
2022-09-12T11:49:35.548Z,97220.13
2022-09-12T11:52:15.787Z,97230.16
2022-09-12T11:55:06.331Z,97229.72
2022-09-12T11:57:56.013Z,97220.31
2022-09-12T12:00:32.693Z,97225.72
2022-09-12T12:03:24.417Z,97210.81
2022-09-12T12:06:08.971Z,97210.81
2022-09-12T12:08:41.433Z,97206.63
2022-09-12T12:11:09.255Z,97209.28
2022-09-12T12:13:43.138Z,97216.09
2022-09-12T12:16:24.862Z,97215.81
2022-09-12T12:19:00.231Z,97216.19
2022-09-12T12:21:29.648Z,97204.16
2022-09-12T12:24:08.193Z,97199.81
2022-09-12T12:26:40.641Z,97202.47
2022-09-12T12:29:11.173Z,97199.44
2022-09-12T12:31:59.262Z,97199.94
2022-09-12T12:34:31.721Z,97198.22
2022-09-12T12:36:59.258Z,97185.75
2022-09-12T12:39:31.439Z,97182.34
2022-09-12T12:42:02.043Z,97178.22
2022-09-12T12:44:47.251Z,97174.59
2022-09-12T12:47:25.766Z,97163.63
2022-09-12T12:50:05.559Z,97167.91
2022-09-12T12:52:46.005Z,97164.69
2022-09-12T12:55:22.544Z,97156.34
2022-09-12T12:57:51.041Z,97169.28
2022-09-12T13:00:20.430Z,97169.56
2022-09-12T13:03:34.054Z,97160.63
2022-09-12T13:06:07.234Z,97165.09
2022-09-12T13:08:36.780Z,97154.84
2022-09-12T13:11:08.826Z,97149.88
2022-09-12T13:13:47.118Z,97147.25
2022-09-12T13:16:38.797Z,97137.91
2022-09-12T13:19:18.245Z,97127.81
2022-09-12T13:22:02.214Z,97146.03
2022-09-12T13:24:29.136Z,97141.53
2022-09-12T13:26:57.540Z,97135.13
2022-09-12T13:29:26.629Z,97133.09
2022-09-12T13:31:56.619Z,97137.66
2022-09-12T13:34:27.689Z,97130.53
2022-09-12T13:37:13.692Z,97117.00
2022-09-12T13:40:16.056Z,97128.72
2022-09-12T13:42:49.563Z,97127.22
2022-09-12T13:45:20.451Z,97102.25
2022-09-12T13:47:50.071Z,97110.28
2022-09-12T13:50:26.386Z,97099.31
2022-09-12T13:52:57.082Z,97112.16
2022-09-12T13:55:33.314Z,97106.50
2022-09-12T13:58:24.647Z,97117.53
2022-09-12T14:01:07.946Z,97105.81
2022-09-12T14:04:08.477Z,97109.94
2022-09-12T14:06:49.964Z,97096.75
2022-09-12T14:09:25.325Z,97103.91
2022-09-12T14:11:52.933Z,97089.56
2022-09-12T14:14:31.350Z,97095.25
2022-09-12T14:16:58.989Z,97101.69
2022-09-12T14:19:26.596Z,97092.63
2022-09-12T14:21:53.818Z,97090.41
2022-09-12T14:24:23.260Z,97090.44
2022-09-12T14:26:52.878Z,97084.69
2022-09-12T14:29:20.433Z,97082.06
2022-09-12T14:31:46.873Z,97079.50
2022-09-12T14:34:16.748Z,97077.34
2022-09-12T14:36:48.945Z,97064.78
2022-09-12T14:39:39.712Z,97074.97
2022-09-12T14:42:21.530Z,97075.44
2022-09-12T14:45:09.830Z,97066.72
2022-09-12T14:47:42.073Z,97065.59
2022-09-12T14:50:21.480Z,97070.88
2022-09-12T14:53:06.191Z,97078.00
2022-09-12T14:55:35.294Z,97067.03
2022-09-12T14:58:26.490Z,97079.91
2022-09-12T15:01:22.599Z,97068.13
2022-09-12T15:03:53.300Z,97061.69
2022-09-12T15:06:25.508Z,97068.53
2022-09-12T15:08:54.601Z,97049.63
2022-09-12T15:11:21.437Z,97056.78
2022-09-12T15:13:48.096Z,97049.56
2022-09-12T15:16:15.656Z,97048.47
2022-09-12T15:18:42.599Z,97054.59
2022-09-12T15:21:13.711Z,97068.91
2022-09-12T15:23:45.654Z,97056.47
2022-09-12T15:26:15.345Z,97057.59
2022-09-12T15:28:41.789Z,97055.66
2022-09-12T15:31:19.047Z,97049.25
2022-09-12T15:33:45.459Z,97039.09
2022-09-12T15:36:18.683Z,97029.66
2022-09-12T15:38:45.852Z,97046.59
2022-09-12T15:41:16.826Z,97035.63
2022-09-12T15:43:43.604Z,97048.44
2022-09-12T15:46:12.170Z,97043.53
2022-09-12T15:48:39.036Z,97040.53
2022-09-12T15:51:12.384Z,97042.41
2022-09-12T15:53:42.176Z,97048.41
2022-09-12T15:56:08.764Z,97034.44
2022-09-12T15:58:35.158Z,97045.81
2022-09-12T16:01:02.373Z,97028.03
2022-09-12T16:03:29.863Z,97024.66
2022-09-12T16:05:58.937Z,97017.81
2022-09-12T16:08:25.298Z,97021.97
2022-09-12T16:10:58.279Z,97011.00
2022-09-12T16:13:25.416Z,97021.16
2022-09-12T16:15:56.121Z,97014.31
2022-09-12T16:18:22.515Z,97012.38
2022-09-12T16:20:53.040Z,97004.81
2022-09-12T16:23:19.376Z,97001.75
2022-09-12T16:25:46.280Z,97011.94
2022-09-12T16:28:12.701Z,97014.47
2022-09-12T16:30:39.073Z,96999.31
2022-09-12T16:33:05.408Z,96992.91
2022-09-12T16:35:32.620Z,96996.56
2022-09-12T16:37:58.941Z,97006.03
2022-09-12T16:40:25.284Z,96993.84
2022-09-12T16:42:51.622Z,96997.22
2022-09-12T16:45:18.066Z,96996.00
2022-09-12T16:47:44.398Z,97004.69
2022-09-12T16:50:11.103Z,96991.06
2022-09-12T16:52:37.740Z,97002.41
2022-09-12T16:55:04.415Z,97005.00
2022-09-12T16:57:30.758Z,97004.19
2022-09-12T16:59:57.118Z,96999.56
2022-09-12T17:02:23.662Z,96998.78
2022-09-12T17:04:50.402Z,97008.88
2022-09-12T17:07:16.731Z,96984.22
2022-09-12T17:09:46.250Z,96988.63
2022-09-12T17:12:14.730Z,96995.69
2022-09-12T17:14:41.062Z,96996.75
2022-09-12T17:17:07.448Z,96986.44
2022-09-12T17:19:33.799Z,96995.31
2022-09-12T17:22:00.252Z,96995.22
2022-09-12T17:24:26.708Z,96993.25
2022-09-12T17:26:53.657Z,96995.47
2022-09-12T17:29:20.321Z,96990.47
2022-09-12T17:31:46.777Z,96993.00
2022-09-12T17:34:17.523Z,96986.44
2022-09-12T17:36:45.422Z,96980.59
2022-09-12T17:39:13.501Z,96992.25
2022-09-12T17:41:42.649Z,96986.44
2022-09-12T17:44:11.842Z,96977.59
2022-09-12T17:46:39.337Z,96985.34
2022-09-12T17:49:08.923Z,96984.06
2022-09-12T17:51:36.121Z,96983.13
2022-09-12T17:54:06.643Z,96987.44
2022-09-12T17:56:34.494Z,96987.78
2022-09-12T17:59:01.453Z,96994.44
2022-09-12T18:01:49.420Z,96979.41
2022-09-12T18:04:16.766Z,96986.41
2022-09-12T18:06:47.959Z,96986.34
2022-09-12T18:09:17.860Z,96976.66
2022-09-12T18:11:44.861Z,96995.41
2022-09-12T18:14:14.169Z,96986.94
2022-09-12T18:16:41.433Z,96990.63
2022-09-12T18:19:08.041Z,96991.56
2022-09-12T18:21:34.444Z,96999.34
2022-09-12T18:24:01.223Z,96982.97
2022-09-12T18:26:28.934Z,96982.13
2022-09-12T18:28:56.340Z,96982.75
2022-09-12T18:31:25.287Z,96989.09
2022-09-12T18:33:52.401Z,96996.03
2022-09-12T18:36:19.767Z,96991.59
2022-09-12T18:38:47.563Z,96984.81
2022-09-12T18:41:16.160Z,96998.78
2022-09-12T18:43:43.065Z,96994.63
2022-09-12T18:46:12.576Z,96983.78
2022-09-12T18:48:39.597Z,96993.00
2022-09-12T18:51:17.898Z,96993.69
2022-09-12T18:53:56.286Z,96991.06
2022-09-12T18:56:27.879Z,96995.34
2022-09-12T18:58:56.596Z,96982.00
2022-09-12T19:01:28.824Z,96986.50
2022-09-12T19:03:56.054Z,96981.25
2022-09-12T19:06:29.504Z,96999.25
2022-09-12T19:08:57.035Z,97001.03
2022-09-12T19:11:25.982Z,96995.94
2022-09-12T19:13:53.937Z,96993.13
2022-09-12T19:16:26.716Z,96992.97
2022-09-12T19:18:55.514Z,96992.66
2022-09-12T19:21:24.864Z,96995.00
2022-09-12T19:23:52.376Z,96991.53
2022-09-12T19:26:20.376Z,96985.78
2022-09-12T19:28:47.040Z,96994.66
2022-09-12T19:31:15.586Z,96998.44
2022-09-12T19:33:42.609Z,96993.88
2022-09-12T19:36:27.597Z,96986.16
2022-09-12T19:38:59.041Z,96975.28
2022-09-12T19:41:26.038Z,96965.06
2022-09-12T19:43:52.377Z,96962.34
2022-09-12T19:46:21.008Z,96963.38
2022-09-12T19:48:47.911Z,96957.09
2022-09-12T19:51:16.032Z,96946.34
2022-09-12T19:53:43.073Z,96932.00
2022-09-12T19:56:11.802Z,96927.50
2022-09-12T19:58:40.410Z,96929.38
2022-09-12T20:01:15.284Z,96939.75
2022-09-12T20:03:42.419Z,96934.53
2022-09-12T20:06:14.307Z,96935.97
2022-09-12T20:08:42.315Z,96938.50
2022-09-12T20:11:09.920Z,96941.63
2022-09-12T20:13:36.463Z,96921.94
2022-09-12T20:16:07.347Z,96931.19
2022-09-12T20:18:34.120Z,96915.09
2022-09-12T20:21:11.719Z,96920.50
2022-09-12T20:23:38.133Z,96913.25
2022-09-12T20:26:04.714Z,96909.44
2022-09-12T20:28:31.316Z,96913.00
2022-09-12T20:31:02.811Z,96910.41
2022-09-12T20:33:29.487Z,96898.75
2022-09-12T20:36:10.983Z,96912.59
2022-09-12T20:38:37.825Z,96908.56
2022-09-12T20:41:06.200Z,96908.91
2022-09-12T20:43:32.628Z,96903.81
2022-09-12T20:45:59.109Z,96906.31
2022-09-12T20:48:25.895Z,96903.50
2022-09-12T20:50:52.245Z,96898.81
2022-09-12T20:53:18.649Z,96916.00
2022-09-12T20:55:52.252Z,96908.69
2022-09-12T20:58:20.088Z,96913.84
2022-09-12T21:00:46.953Z,96906.84
2022-09-12T21:03:14.142Z,96891.31
2022-09-12T21:05:42.704Z,96899.66
2022-09-12T21:08:10.042Z,96910.13
2022-09-12T21:10:36.615Z,96911.41
2022-09-12T21:13:03.024Z,96913.84
2022-09-12T21:15:29.346Z,96907.31
2022-09-12T21:17:55.684Z,96897.94
2022-09-12T21:20:22.011Z,96897.03
2022-09-12T21:22:48.429Z,96899.81
2022-09-12T21:25:14.844Z,96896.00
2022-09-12T21:27:41.182Z,96899.66
2022-09-12T21:30:07.906Z,96904.72
2022-09-12T21:32:35.894Z,96898.28
2022-09-12T21:35:03.891Z,96891.09
2022-09-12T21:37:30.299Z,96894.34
2022-09-12T21:39:57.705Z,96877.03
2022-09-12T21:42:24.804Z,96883.13
2022-09-12T21:44:51.267Z,96879.19
2022-09-12T21:47:17.774Z,96885.63
2022-09-12T21:49:44.133Z,96879.63
2022-09-12T21:52:12.553Z,96887.88
2022-09-12T21:54:39.081Z,96882.66
2022-09-12T21:57:05.647Z,96881.22
2022-09-12T21:59:32.003Z,96894.41
2022-09-12T22:01:58.387Z,96882.47
2022-09-12T22:04:25.087Z,96878.56
2022-09-12T22:06:51.401Z,96892.81
2022-09-12T22:09:17.799Z,96890.88
2022-09-12T22:11:44.122Z,96883.03
2022-09-12T22:14:10.934Z,96886.81
2022-09-12T22:16:37.252Z,96878.66
2022-09-12T22:19:03.699Z,96882.78
2022-09-12T22:21:30.032Z,96877.72
2022-09-12T22:24:14.692Z,96878.81
2022-09-12T22:26:43.166Z,96872.69
2022-09-12T22:29:11.049Z,96875.63
2022-09-12T22:31:37.957Z,96866.81
2022-09-12T22:34:04.631Z,96852.03
2022-09-12T22:36:31.884Z,96853.56
2022-09-12T22:38:59.762Z,96865.06
2022-09-12T22:41:26.113Z,96864.00
2022-09-12T22:43:52.467Z,96872.91
2022-09-12T22:46:18.992Z,96860.06
2022-09-12T22:48:45.612Z,96851.72
2022-09-12T22:51:11.987Z,96853.97
2022-09-12T22:53:38.770Z,96852.47
2022-09-12T22:56:05.763Z,96857.00
2022-09-12T22:58:33.413Z,96863.78
2022-09-12T23:00:59.861Z,96863.66
2022-09-12T23:03:26.352Z,96863.34
2022-09-12T23:05:52.731Z,96860.63
2022-09-12T23:08:19.320Z,96860.09
2022-09-12T23:10:46.936Z,96864.25
2022-09-12T23:13:13.471Z,96854.09
2022-09-12T23:15:39.844Z,96858.84
2022-09-12T23:18:06.430Z,96863.28
2022-09-12T23:20:32.896Z,96861.00
2022-09-12T23:22:59.230Z,96863.19
2022-09-12T23:25:26.132Z,96869.06
2022-09-12T23:27:52.863Z,96868.16
2022-09-12T23:30:21.494Z,96876.25
2022-09-12T23:32:49.104Z,96863.19
2022-09-12T23:35:19.360Z,96857.53
2022-09-12T23:37:46.870Z,96844.59
2022-09-12T23:40:13.463Z,96845.34
2022-09-12T23:42:39.867Z,96840.91
2022-09-12T23:45:06.586Z,96846.47
2022-09-12T23:47:32.952Z,96859.66
2022-09-12T23:49:59.304Z,96859.09
2022-09-12T23:52:25.628Z,96845.50
2022-09-12T23:54:51.969Z,96834.19
2022-09-12T23:57:18.296Z,96844.84
2022-09-12T23:59:44.675Z,96839.75
